Time;durP1;ratioP1;P1;durP2;ratioP2;P2;SDS_P1;SDS_P2;PMS_P1;PMS_P2;Temp;Humidity;BMP_temperature;BMP_pressure;BME280_temperature;BME280_humidity;BME280_pressure;Samples;Min_cycle;Max_cycle;Signal;HPM_P1;HPM_P2
2021/06/22 00:01:25;;;;;;;54.42;49.10;;;;;;;;;;4112350;34;20064;-85
2021/06/22 00:03:54;;;;;;;53.95;48.85;;;;;;;;;;4122446;34;20065;-84
2021/06/22 00:06:23;;;;;;;52.20;47.03;;;;;;;;;;4122792;34;20127;-84
2021/06/22 00:08:51;;;;;;;52.38;47.22;;;;;;;;;;4122187;34;20093;-84
2021/06/22 00:11:20;;;;;;;43.90;39.22;;;;;;;;;;4108426;34;20095;-85
2021/06/22 00:13:49;;;;;;;43.05;38.65;;;;;;;;;;4119756;34;20083;-84
2021/06/22 00:16:17;;;;;;;44.15;39.83;;;;;;;;;;4118204;34;20596;-85
2021/06/22 00:18:46;;;;;;;45.70;40.90;;;;;;;;;;4120785;34;20053;-85
2021/06/22 00:21:15;;;;;;;53.75;48.00;;;;;;;;;;4121099;34;20130;-84
2021/06/22 00:23:43;;;;;;;54.67;49.08;;;;;;;;;;4117037;34;20687;-84
2021/06/22 00:26:12;;;;;;;57.25;51.55;;;;;;;;;;4110300;34;20053;-85
2021/06/22 00:28:40;;;;;;;59.05;53.00;;;;;;;;;;4124380;34;20407;-84
2021/06/22 00:31:09;;;;;;;53.70;48.30;;;;;;;;;;4118668;34;20164;-85
2021/06/22 00:33:38;;;;;;;50.15;45.08;;;;;;;;;;4120368;34;20136;-85
2021/06/22 00:36:07;;;;;;;49.60;44.67;;;;;;;;;;4119577;34;20104;-85
2021/06/22 00:38:36;;;;;;;60.70;55.30;;;;;;;;;;4118804;34;20112;-84
2021/06/22 00:41:05;;;;;;;61.10;55.65;;;;;;;;;;4120902;34;20075;-84
2021/06/22 00:43:36;;;;;;;62.15;56.70;;;;;;;;;;4111298;34;20489;-84
2021/06/22 00:46:05;;;;;;;60.50;54.97;;;;;;;;;;4121156;34;20521;-85
2021/06/22 00:48:34;;;;;;;61.37;55.88;;;;;;;;;;4119952;34;20104;-85
2021/06/22 00:51:03;;;;;;;49.25;44.35;;;;;;;;;;4119011;34;20129;-85
2021/06/22 00:53:36;;;;;;;48.87;44.03;;;;;;;;;;4119888;34;20069;-84
2021/06/22 00:56:05;;;;;;;60.17;52.80;;;;;;;;;;4119765;34;20104;-85
2021/06/22 00:58:34;;;;;;;58.78;52.90;;;;;;;;;;4120674;34;20640;-84
2021/06/22 01:01:04;;;;;;;59.30;53.38;;;;;;;;;;4121235;34;20107;-85
2021/06/22 01:03:33;;;;;;;59.25;53.38;;;;;;;;;;4118435;34;20116;-85
2021/06/22 01:06:03;;;;;;;58.92;52.90;;;;;;;;;;4119507;34;20156;-85
2021/06/22 01:08:33;;;;;;;58.17;52.42;;;;;;;;;;4124064;34;20106;-85
2021/06/22 01:11:03;;;;;;;58.45;52.80;;;;;;;;;;4119865;34;20116;-85
2021/06/22 01:13:32;;;;;;;58.30;52.72;;;;;;;;;;4121377;34;20124;-85
2021/06/22 01:16:01;;;;;;;54.72;49.70;;;;;;;;;;4119114;34;20097;-85
2021/06/22 01:18:31;;;;;;;51.50;46.33;;;;;;;;;;4121519;34;20766;-85
2021/06/22 01:21:05;;;;;;;55.90;50.85;;;;;;;;;;4119707;34;20124;-84
2021/06/22 01:23:36;;;;;;;56.15;51.15;;;;;;;;;;4120741;34;20065;-85
2021/06/22 01:26:05;;;;;;;56.50;51.28;;;;;;;;;;4119620;34;20061;-84
2021/06/22 01:28:34;;;;;;;58.22;51.90;;;;;;;;;;4114701;34;20100;-85
2021/06/22 01:31:04;;;;;;;46.15;41.70;;;;;;;;;;4120173;34;20524;-85
2021/06/22 01:33:33;;;;;;;46.00;41.63;;;;;;;;;;4120812;34;20129;-85
2021/06/22 01:36:01;;;;;;;46.33;41.63;;;;;;;;;;4119771;34;20105;-84
2021/06/22 01:38:31;;;;;;;47.35;42.50;;;;;;;;;;4122923;34;20412;-85
2021/06/22 01:40:59;;;;;;;46.75;42.17;;;;;;;;;;4121134;34;20525;-85
2021/06/22 01:43:28;;;;;;;46.55;42.08;;;;;;;;;;4123938;34;20104;-85
2021/06/22 01:45:57;;;;;;;47.05;42.47;;;;;;;;;;4123963;34;20177;-85
2021/06/22 01:48:25;;;;;;;57.78;51.85;;;;;;;;;;4124457;34;20071;-84
2021/06/22 01:50:54;;;;;;;57.88;51.97;;;;;;;;;;4123543;34;21397;-86
2021/06/22 01:53:25;;;;;;;57.33;51.80;;;;;;;;;;4124588;34;20187;-84
2021/06/22 01:55:54;;;;;;;57.90;52.80;;;;;;;;;;4121759;34;20159;-85
2021/06/22 01:58:23;;;;;;;50.72;45.97;;;;;;;;;;4121418;34;20108;-84
2021/06/22 02:00:54;;;;;;;49.67;44.97;;;;;;;;;;4120038;34;20177;-85
2021/06/22 02:03:28;;;;;;;50.40;45.90;;;;;;;;;;4123723;34;20167;-85
2021/06/22 02:05:57;;;;;;;51.63;47.13;;;;;;;;;;4120879;34;20594;-86
2021/06/22 02:08:27;;;;;;;48.75;43.90;;;;;;;;;;4120819;34;20076;-85
2021/06/22 02:10:55;;;;;;;46.92;42.88;;;;;;;;;;4121302;34;20178;-85
2021/06/22 02:13:27;;;;;;;46.80;42.35;;;;;;;;;;4122408;34;20112;-84
2021/06/22 02:15:57;;;;;;;46.75;41.95;;;;;;;;;;4119126;34;20093;-84
2021/06/22 02:18:27;;;;;;;44.92;40.63;;;;;;;;;;4124099;34;20170;-85
2021/06/22 02:20:57;;;;;;;51.67;46.53;;;;;;;;;;4121369;34;20139;-85
2021/06/22 02:23:26;;;;;;;51.65;46.33;;;;;;;;;;4123885;34;20378;-85
2021/06/22 02:25:55;;;;;;;43.28;38.88;;;;;;;;;;4110305;34;20220;-85
2021/06/22 02:28:24;;;;;;;43.25;38.53;;;;;;;;;;4122546;34;20096;-85
2021/06/22 02:30:54;;;;;;;40.95;36.88;;;;;;;;;;4118848;34;20165;-85
2021/06/22 02:33:23;;;;;;;40.22;36.17;;;;;;;;;;4122162;34;20792;-85
2021/06/22 02:35:53;;;;;;;45.88;41.75;;;;;;;;;;4121866;34;20143;-85
2021/06/22 02:38:22;;;;;;;44.80;40.20;;;;;;;;;;4123359;34;20100;-84
2021/06/22 02:40:51;;;;;;;43.70;39.63;;;;;;;;;;4120249;34;20103;-84
2021/06/22 02:43:22;;;;;;;45.05;40.75;;;;;;;;;;4127402;34;20092;-84
2021/06/22 02:45:51;;;;;;;45.33;41.05;;;;;;;;;;4131655;34;20573;-85
2021/06/22 02:48:20;;;;;;;48.87;43.85;;;;;;;;;;4130457;34;20041;-84
2021/06/22 02:50:49;;;;;;;54.67;49.42;;;;;;;;;;4123328;34;20362;-84
2021/06/22 02:53:20;;;;;;;58.47;52.72;;;;;;;;;;4120769;34;20469;-84
2021/06/22 02:55:49;;;;;;;61.17;55.15;;;;;;;;;;4120755;34;20612;-85
2021/06/22 02:58:19;;;;;;;60.10;53.67;;;;;;;;;;4123084;34;20065;-85
2021/06/22 03:00:47;;;;;;;64.25;57.90;;;;;;;;;;4121153;34;20091;-85
2021/06/22 03:03:16;;;;;;;68.85;62.22;;;;;;;;;;4123276;34;20140;-85
2021/06/22 03:05:46;;;;;;;69.72;63.30;;;;;;;;;;4120161;34;20139;-85
2021/06/22 03:08:15;;;;;;;72.68;65.68;;;;;;;;;;4122235;34;20093;-85
2021/06/22 03:10:51;;;;;;;74.00;66.78;;;;;;;;;;4141695;28;20096;-96
2021/06/22 03:13:24;;;;;;;71.37;64.45;;;;;;;;;;4111162;34;20085;-95
2021/06/22 03:15:59;;;;;;;69.87;63.83;;;;;;;;;;4102312;34;20084;-95
2021/06/22 03:18:35;;;;;;;70.93;65.15;;;;;;;;;;4105521;34;20117;-94
2021/06/22 03:21:11;;;;;;;70.00;64.03;;;;;;;;;;4112566;34;20408;-95
2021/06/22 03:23:51;;;;;;;68.25;62.38;;;;;;;;;;4102767;34;20097;-95
2021/06/22 03:26:23;;;;;;;72.68;66.28;;;;;;;;;;4102990;34;20139;-95
2021/06/22 03:28:55;;;;;;;58.85;53.20;;;;;;;;;;4111065;34;20099;-94
2021/06/22 03:31:29;;;;;;;56.58;51.30;;;;;;;;;;4114067;34;20069;-92
2021/06/22 03:34:05;;;;;;;66.60;60.03;;;;;;;;;;4098001;34;20142;-94
2021/06/22 03:36:39;;;;;;;64.57;57.85;;;;;;;;;;4101635;34;20089;-94
2021/06/22 03:39:08;;;;;;;64.28;57.88;;;;;;;;;;4109435;34;20416;-94
2021/06/22 03:41:40;;;;;;;63.72;57.50;;;;;;;;;;4110931;34;20148;-93
2021/06/22 03:44:11;;;;;;;55.70;50.30;;;;;;;;;;4100002;34;20105;-94
2021/06/22 03:46:49;;;;;;;55.17;50.28;;;;;;;;;;4109980;34;20112;-95
2021/06/22 03:49:18;;;;;;;54.05;48.95;;;;;;;;;;4112246;34;20092;-93
2021/06/22 03:52:00;;;;;;;53.65;48.70;;;;;;;;;;4100097;34;20105;-94
2021/06/22 03:54:37;;;;;;;53.55;48.85;;;;;;;;;;4109051;34;20115;-95
2021/06/22 03:57:23;;;;;;;51.50;46.58;;;;;;;;;;4104336;34;20127;-95
2021/06/22 03:59:54;;;;;;;49.85;45.65;;;;;;;;;;4112817;34;20575;-92
2021/06/22 04:02:33;;;;;;;42.10;37.78;;;;;;;;;;4109114;34;20644;-93
2021/06/22 04:08:44;;;;;;;43.38;39.17;;;;;;;;;;4051255;35;20114;-94
2021/06/22 04:11:19;;;;;;;44.25;39.92;;;;;;;;;;4050640;35;20071;-94
2021/06/22 04:13:54;;;;;;;45.88;41.13;;;;;;;;;;4058887;35;20478;-94
2021/06/22 04:16:44;;;;;;;46.67;38.42;;;;;;;;;;4050024;35;20059;-94
2021/06/22 04:19:20;;;;;;;39.88;36.22;;;;;;;;;;4061073;35;20098;-94
2021/06/22 04:21:56;;;;;;;39.17;35.28;;;;;;;;;;4062732;35;20067;-93
2021/06/22 04:24:30;;;;;;;39.70;35.78;;;;;;;;;;4059518;35;20162;-94
2021/06/22 04:27:29;;;;;;;39.83;35.83;;;;;;;;;;4061575;35;20193;-93
2021/06/22 04:30:13;;;;;;;39.10;35.35;;;;;;;;;;4051293;35;20171;-94
2021/06/22 04:32:47;;;;;;;40.15;36.03;;;;;;;;;;4111889;34;20180;-95
2021/06/22 04:35:38;;;;;;;39.47;35.17;;;;;;;;;;4095411;34;20087;-95
2021/06/22 04:38:13;;;;;;;;;;;;;;;;;;4103324;34;20113;-95
2021/06/22 04:40:45;;;;;;;39.03;34.97;;;;;;;;;;4102571;34;19960;-95
2021/06/22 04:43:14;;;;;;;38.47;34.72;;;;;;;;;;4090076;34;20093;-94
2021/06/22 04:45:51;;;;;;;39.65;35.25;;;;;;;;;;4109532;34;20080;-96
2021/06/22 04:48:27;;;;;;;41.65;38.03;;;;;;;;;;4101969;34;20154;-93
2021/06/22 04:51:25;;;;;;;41.22;37.58;;;;;;;;;;4108804;34;20131;-94
2021/06/22 04:53:58;;;;;;;42.28;38.42;;;;;;;;;;4102327;34;20682;-95
2021/06/22 04:56:27;;;;;;;41.80;37.60;;;;;;;;;;4101540;34;20057;-92
2021/06/22 04:59:06;;;;;;;40.58;36.80;;;;;;;;;;4100871;34;20766;-94
2021/06/22 05:01:40;;;;;;;39.55;35.72;;;;;;;;;;4101555;34;20108;-94
2021/06/22 05:04:17;;;;;;;38.63;34.92;;;;;;;;;;4112178;34;20182;-95
2021/06/22 05:06:46;;;;;;;39.45;35.42;;;;;;;;;;4099622;34;20084;-95
2021/06/22 05:09:20;;;;;;;41.90;38.03;;;;;;;;;;4102457;34;20091;-94
2021/06/22 05:11:57;;;;;;;39.25;35.17;;;;;;;;;;4112142;34;20806;-94
2021/06/22 05:14:30;;;;;;;35.55;31.92;;;;;;;;;;4100484;34;20109;-94
2021/06/22 05:17:06;;;;;;;34.13;30.67;;;;;;;;;;4091097;34;20094;-95
2021/06/22 05:19:48;;;;;;;35.97;30.85;;;;;;;;;;4100788;34;20141;-93
2021/06/22 05:22:22;;;;;;;37.28;33.25;;;;;;;;;;4104905;34;20108;-94
2021/06/22 05:24:51;;;;;;;34.08;30.55;;;;;;;;;;4099846;34;20128;-96
2021/06/22 05:27:25;;;;;;;34.88;31.58;;;;;;;;;;4111508;34;20192;-93
2021/06/22 05:29:54;;;;;;;37.75;33.28;;;;;;;;;;4099303;34;20088;-93
2021/06/22 05:32:27;;;;;;;35.00;31.27;;;;;;;;;;4110526;34;20084;-92
2021/06/22 05:35:02;;;;;;;39.25;35.22;;;;;;;;;;4113383;34;20076;-95
2021/06/22 05:37:45;;;;;;;40.72;36.63;;;;;;;;;;4110506;34;20108;-95
2021/06/22 05:40:23;;;;;;;;;;;;;;;;;;4099391;34;20117;-95
2021/06/22 05:43:02;;;;;;;41.78;37.55;;;;;;;;;;4101053;34;19992;-94
2021/06/22 05:45:38;;;;;;;45.60;41.40;;;;;;;;;;4098551;34;20883;-95
2021/06/22 05:48:07;;;;;;;46.58;41.80;;;;;;;;;;4102008;34;20472;-94
2021/06/22 05:50:39;;;;;;;48.67;43.80;;;;;;;;;;4099185;34;22348;-93
2021/06/22 05:53:21;;;;;;;53.72;48.35;;;;;;;;;;4112621;34;20220;-92
2021/06/22 05:55:59;;;;;;;66.30;60.63;;;;;;;;;;4100088;34;20080;-94
2021/06/22 05:58:33;;;;;;;70.53;64.45;;;;;;;;;;4107094;34;20081;-93
2021/06/22 06:01:16;;;;;;;67.55;61.67;;;;;;;;;;4111064;34;20084;-94
2021/06/22 06:03:58;;;;;;;80.15;73.10;;;;;;;;;;4100331;34;20120;-94
2021/06/22 06:06:33;;;;;;;79.28;72.25;;;;;;;;;;4089529;34;20106;-93
2021/06/22 06:09:07;;;;;;;65.05;59.22;;;;;;;;;;4108457;34;20088;-93
2021/06/22 06:11:36;;;;;;;63.35;57.80;;;;;;;;;;4100268;34;20930;-93
2021/06/22 06:14:09;;;;;;;79.22;71.65;;;;;;;;;;4099275;34;20089;-94
2021/06/22 06:16:37;;;;;;;80.60;72.60;;;;;;;;;;4113222;34;20096;-95
2021/06/22 06:19:33;;;;;;;78.97;71.47;;;;;;;;;;4108283;34;20050;-94
2021/06/22 06:22:03;;;;;;;64.97;58.90;;;;;;;;;;4110696;34;20057;-93
2021/06/22 06:24:38;;;;;;;67.10;60.67;;;;;;;;;;4124057;34;20101;-94
2021/06/22 06:27:25;;;;;;;68.32;61.63;;;;;;;;;;4115151;34;20777;-94
2021/06/22 06:30:16;;;;;;;82.72;74.25;;;;;;;;;;4123563;34;20092;-94
2021/06/22 06:32:49;;;;;;;82.35;74.40;;;;;;;;;;4116724;34;20174;-94
2021/06/22 06:35:51;;;;;;;80.22;73.20;;;;;;;;;;4117841;34;20085;-93
2021/06/22 06:38:37;;;;;;;83.35;76.20;;;;;;;;;;4117401;34;20091;-93
2021/06/22 06:41:15;;;;;;;80.93;73.32;;;;;;;;;;4118280;34;20136;-93
2021/06/22 06:43:59;;;;;;;;;;;;;;;;;;4115884;34;20630;-95
2021/06/22 06:46:55;;;;;;;89.00;81.10;;;;;;;;;;4113730;34;20048;-96
2021/06/22 06:49:35;;;;;;;73.62;66.95;;;;;;;;;;4115621;34;20132;-94
2021/06/22 06:52:12;;;;;;;72.95;66.15;;;;;;;;;;4116081;34;20754;-94
2021/06/22 06:55:45;;;;;;;;;;;;;;;;;;;;;
2021/06/22 06:58:13;;;;;;;71.22;64.68;;;;;;;;;;4115668;34;20130;-94
2021/06/22 07:00:54;;;;;;;92.50;83.62;;;;;;;;;;4115524;34;20147;-95
2021/06/22 07:03:37;;;;;;;96.18;87.10;;;;;;;;;;4126286;34;22006;-93
2021/06/22 07:06:06;;;;;;;93.00;84.22;;;;;;;;;;4111985;34;20100;-94
2021/06/22 07:08:54;;;;;;;95.32;85.95;;;;;;;;;;4115956;34;20095;-93
2021/06/22 07:11:40;;;;;;;97.47;88.00;;;;;;;;;;4120262;34;20144;-94
2021/06/22 07:14:14;;;;;;;99.47;90.30;;;;;;;;;;4136297;34;20552;-95
2021/06/22 07:17:13;;;;;;;77.62;71.20;;;;;;;;;;4122067;34;20134;-92
2021/06/22 07:19:48;;;;;;;86.25;78.85;;;;;;;;;;4125730;34;20103;-93
2021/06/22 07:22:41;;;;;;;94.68;86.55;;;;;;;;;;4124176;34;20136;-92
2021/06/22 07:25:32;;;;;;;97.93;89.62;;;;;;;;;;4128067;34;20600;-94
2021/06/22 07:28:08;;;;;;;78.50;71.03;;;;;;;;;;4136598;34;20104;-95
2021/06/22 07:31:07;;;;;;;74.28;67.57;;;;;;;;;;4124171;34;20116;-95
2021/06/22 07:33:50;;;;;;;76.18;68.65;;;;;;;;;;4131816;34;20065;-95
2021/06/22 07:36:39;;;;;;;71.68;65.07;;;;;;;;;;4123997;34;20085;-95
2021/06/22 07:39:08;;;;;;;74.82;68.22;;;;;;;;;;4125300;34;20053;-94
2021/06/22 07:41:43;;;;;;;78.55;71.47;;;;;;;;;;4123251;34;20087;-94
2021/06/22 07:44:41;;;;;;;79.57;72.32;;;;;;;;;;4134327;34;20079;-95
2021/06/22 07:47:16;;;;;;;85.95;78.43;;;;;;;;;;4124610;34;20099;-94
2021/06/22 07:50:06;;;;;;;84.85;77.53;;;;;;;;;;4127321;34;20111;-94
2021/06/22 07:52:37;;;;;;;91.10;83.45;;;;;;;;;;4125848;34;20080;-94
2021/06/22 07:55:25;;;;;;;129.32;119.30;;;;;;;;;;4133952;34;20088;-94
2021/06/22 07:58:18;;;;;;;164.85;153.77;;;;;;;;;;4127805;34;20088;-95
2021/06/22 08:00:53;;;;;;;196.10;184.85;;;;;;;;;;4123541;34;20121;-93
2021/06/22 08:06:44;;;;;;;6.50;2.85;;;;;;;;;;4128132;34;20116;-93
2021/06/22 08:09:17;;;;;;;5.97;1.60;;;;;;;;;;4119494;34;20104;-93
2021/06/22 08:11:51;;;;;;;3.58;0.98;;;;;;;;;;4117715;34;20139;-95
2021/06/22 08:14:20;;;;;;;6.53;1.30;;;;;;;;;;4124372;34;20471;-95
2021/06/22 08:17:02;;;;;;;6.35;1.58;;;;;;;;;;4124438;34;20577;-93
2021/06/22 08:19:37;;;;;;;2.72;0.85;;;;;;;;;;4122929;34;20092;-94
2021/06/22 08:22:20;;;;;;;8.85;1.48;;;;;;;;;;4115172;34;20162;-95
2021/06/22 08:24:55;;;;;;;6.55;1.12;;;;;;;;;;4125006;34;20136;-95
2021/06/22 08:27:29;;;;;;;19.30;1.60;;;;;;;;;;4125934;34;20132;-93
2021/06/22 08:30:28;;;;;;;7.72;2.22;;;;;;;;;;4133011;34;20077;-94
2021/06/22 08:33:18;;;;;;;;;;;;;;;;;;;;;
2021/06/22 08:36:28;;;;;;;5.00;1.85;;;;;;;;;;4122100;34;20053;-94
2021/06/22 08:40:02;;;;;;;5.60;2.53;;;;;;;;;;4124276;34;20185;-95
2021/06/22 08:43:01;;;;;;;4.05;1.35;;;;;;;;;;4123994;34;20061;-96
2021/06/22 08:45:56;;;;;;;;;;;;;;;;;;;;;
2021/06/22 08:49:06;;;;;;;2.35;0.80;;;;;;;;;;4130373;34;20134;-93
2021/06/22 08:51:42;;;;;;;5.50;0.85;;;;;;;;;;4123740;34;20127;-96
2021/06/22 08:54:25;;;;;;;3.05;1.08;;;;;;;;;;4121602;34;20068;-93
2021/06/22 08:57:00;;;;;;;3.53;0.68;;;;;;;;;;4126382;34;20537;-95
2021/06/22 08:59:36;;;;;;;5.28;0.90;;;;;;;;;;4124929;34;20100;-94
2021/06/22 09:02:09;;;;;;;11.27;1.17;;;;;;;;;;4129160;34;20136;-94
2021/06/22 09:04:38;;;;;;;3.62;1.00;;;;;;;;;;4126999;34;20159;-93
2021/06/22 09:07:33;;;;;;;2.45;0.90;;;;;;;;;;4129513;34;20084;-95
2021/06/22 09:10:09;;;;;;;6.68;0.80;;;;;;;;;;4126379;34;20115;-94
2021/06/22 09:12:37;;;;;;;16.42;1.30;;;;;;;;;;4112297;34;20531;-94
2021/06/22 09:15:29;;;;;;;3.50;0.80;;;;;;;;;;4118551;34;20570;-94
2021/06/22 09:18:39;;;;;;;3.92;0.95;;;;;;;;;;4104911;34;20053;-95
2021/06/22 09:21:18;;;;;;;2.42;0.80;;;;;;;;;;4111448;34;20080;-93
2021/06/22 09:23:47;;;;;;;4.72;1.23;;;;;;;;;;4119458;34;20112;-96
2021/06/22 09:26:31;;;;;;;3.70;1.15;;;;;;;;;;4116031;34;20396;-94
2021/06/22 09:29:16;;;;;;;2.85;0.88;;;;;;;;;;4110530;34;20388;-93
2021/06/22 09:31:50;;;;;;;6.55;1.10;;;;;;;;;;4105016;34;20077;-95
2021/06/22 09:34:23;;;;;;;3.37;0.90;;;;;;;;;;4112536;34;20116;-93
2021/06/22 09:36:56;;;;;;;3.35;0.85;;;;;;;;;;4109109;34;20124;-92
2021/06/22 09:39:29;;;;;;;6.93;1.60;;;;;;;;;;4117651;34;20161;-95
2021/06/22 09:41:59;;;;;;;3.83;1.20;;;;;;;;;;4118460;34;20083;-94
2021/06/22 09:44:36;;;;;;;4.50;1.08;;;;;;;;;;4117354;34;20937;-95
2021/06/22 09:47:32;;;;;;;2.47;0.80;;;;;;;;;;4118591;34;20061;-92
2021/06/22 09:50:01;;;;;;;4.22;0.93;;;;;;;;;;4113186;34;20069;-94
2021/06/22 09:52:40;;;;;;;5.07;1.10;;;;;;;;;;4119601;34;20131;-92
2021/06/22 09:55:11;;;;;;;3.08;0.90;;;;;;;;;;4117414;34;20353;-94
2021/06/22 09:57:44;;;;;;;5.00;1.20;;;;;;;;;;4110352;34;20706;-94
2021/06/22 10:00:22;;;;;;;3.60;0.90;;;;;;;;;;4112553;34;20131;-95
2021/06/22 10:03:02;;;;;;;6.40;1.12;;;;;;;;;;4112395;34;20061;-94
2021/06/22 10:05:30;;;;;;;7.12;1.10;;;;;;;;;;4112271;34;20105;-94
2021/06/22 10:08:11;;;;;;;4.10;0.85;;;;;;;;;;4127882;34;20480;-94
2021/06/22 10:10:41;;;;;;;2.90;1.02;;;;;;;;;;4128127;34;20081;-95
2021/06/22 10:13:35;;;;;;;3.53;0.93;;;;;;;;;;4136060;34;20188;-95
2021/06/22 10:16:21;;;;;;;3.65;1.00;;;;;;;;;;4128503;34;20152;-94
2021/06/22 10:18:57;;;;;;;8.43;1.33;;;;;;;;;;4124511;34;20108;-95
2021/06/22 10:21:26;;;;;;;5.20;1.10;;;;;;;;;;4122710;34;20467;-95
2021/06/22 10:23:57;;;;;;;5.35;1.25;;;;;;;;;;4129997;34;20329;-94
2021/06/22 10:26:29;;;;;;;3.65;1.10;;;;;;;;;;4117487;34;20061;-94
2021/06/22 10:29:01;;;;;;;13.98;1.50;;;;;;;;;;4124482;34;20096;-94
2021/06/22 10:31:32;;;;;;;2.87;0.90;;;;;;;;;;4134205;34;20057;-95
2021/06/22 10:34:02;;;;;;;1.75;0.90;;;;;;;;;;4137681;34;20065;-94
2021/06/22 10:36:49;;;;;;;2.85;0.80;;;;;;;;;;4137506;34;20146;-94
2021/06/22 10:39:36;;;;;;;3.25;0.88;;;;;;;;;;4130705;34;20543;-96
2021/06/22 10:42:11;;;;;;;2.95;0.70;;;;;;;;;;4141362;34;20135;-95
2021/06/22 10:44:50;;;;;;;3.30;0.90;;;;;;;;;;4128246;34;20953;-95
2021/06/22 10:47:23;;;;;;;3.85;1.00;;;;;;;;;;4127984;34;20061;-96
2021/06/22 10:50:04;;;;;;;6.70;2.03;;;;;;;;;;4130743;34;20677;-96
2021/06/22 10:52:46;;;;;;;3.65;0.90;;;;;;;;;;4130746;34;20061;-96
2021/06/22 10:55:33;;;;;;;1.97;0.70;;;;;;;;;;4129687;34;20585;-96
2021/06/22 10:58:06;;;;;;;2.33;0.88;;;;;;;;;;4134909;34;20057;-96
2021/06/22 11:00:56;;;;;;;4.12;0.98;;;;;;;;;;4127619;34;20448;-96
2021/06/22 11:03:31;;;;;;;3.22;0.70;;;;;;;;;;4130817;34;20111;-96
2021/06/22 11:06:06;;;;;;;2.37;0.90;;;;;;;;;;4125004;34;20170;-96
2021/06/22 11:08:35;;;;;;;3.20;0.85;;;;;;;;;;4127128;34;20142;-96
2021/06/22 11:11:13;;;;;;;2.40;0.90;;;;;;;;;;4125613;34;20430;-95
2021/06/22 11:13:53;;;;;;;2.78;0.70;;;;;;;;;;4141899;34;20056;-96
2021/06/22 11:16:33;;;;;;;4.65;1.00;;;;;;;;;;4125295;34;20061;-96
2021/06/22 11:19:09;;;;;;;4.57;0.98;;;;;;;;;;4129553;34;20077;-96
2021/06/22 11:21:43;;;;;;;3.05;0.80;;;;;;;;;;4138271;34;20123;-96
2021/06/22 11:24:18;;;;;;;2.50;0.93;;;;;;;;;;4110970;34;20107;-96
2021/06/22 11:26:48;;;;;;;2.58;0.60;;;;;;;;;;4124149;34;20081;-96
2021/06/22 11:29:22;;;;;;;3.92;1.05;;;;;;;;;;4132248;34;22014;-96
2021/06/22 11:32:00;;;;;;;2.95;0.80;;;;;;;;;;4135003;34;20127;-95
2021/06/22 11:34:38;;;;;;;4.95;1.00;;;;;;;;;;4123099;34;20081;-94
2021/06/22 11:37:07;;;;;;;7.28;1.17;;;;;;;;;;4124082;34;20138;-96
2021/06/22 11:39:39;;;;;;;3.55;0.90;;;;;;;;;;4124647;34;20377;-94
2021/06/22 11:42:11;;;;;;;3.83;0.90;;;;;;;;;;4129489;34;20104;-95
2021/06/22 11:44:45;;;;;;;1.60;0.52;;;;;;;;;;4123678;34;20648;-94
2021/06/22 11:47:14;;;;;;;5.50;1.10;;;;;;;;;;4126359;34;20126;-94
2021/06/22 11:49:44;;;;;;;2.35;1.05;;;;;;;;;;4124418;34;20794;-96
2021/06/22 11:52:13;;;;;;;4.32;1.00;;;;;;;;;;4124907;34;20093;-95
2021/06/22 11:54:55;;;;;;;2.37;0.73;;;;;;;;;;4132358;34;20104;-95
2021/06/22 11:57:31;;;;;;;3.85;0.70;;;;;;;;;;4124359;34;20073;-96
2021/06/22 12:00:13;;;;;;;3.05;0.75;;;;;;;;;;4132430;34;20113;-95
2021/06/22 12:02:48;;;;;;;4.05;0.93;;;;;;;;;;4123169;34;20119;-94
2021/06/22 12:05:20;;;;;;;2.37;0.93;;;;;;;;;;4130177;34;20084;-96
2021/06/22 12:07:51;;;;;;;4.28;0.70;;;;;;;;;;4120561;34;20476;-94
2021/06/22 12:10:21;;;;;;;4.68;0.93;;;;;;;;;;4123134;34;20142;-96
2021/06/22 12:12:52;;;;;;;5.72;0.75;;;;;;;;;;4118936;34;20444;-95
2021/06/22 12:15:33;;;;;;;2.50;0.70;;;;;;;;;;4124271;34;20123;-95
2021/06/22 12:18:20;;;;;;;4.95;1.02;;;;;;;;;;4116081;34;20171;-96
2021/06/22 12:21:32;;;;;;;4.65;0.73;;;;;;;;;;4113929;34;20053;-94
2021/06/22 12:24:48;;;;;;;2.30;0.60;;;;;;;;;;4122717;34;20129;-96
2021/06/22 12:28:04;;;;;;;5.15;0.70;;;;;;;;;;4107147;34;20080;-95
2021/06/22 12:31:24;;;;;;;;;;;;;;;;;;;;;
2021/06/22 12:35:23;;;;;;;36.65;3.65;;;;;;;;;;4084981;34;20059;-96
2021/06/22 12:38:44;;;;;;;1.98;0.88;;;;;;;;;;4114967;34;20486;-95
2021/06/22 12:41:48;;;;;;;1.65;0.60;;;;;;;;;;4114085;34;20111;-94
2021/06/22 12:44:57;;;;;;;3.85;0.80;;;;;;;;;;4112438;34;20080;-95
2021/06/22 12:47:55;;;;;;;2.62;0.77;;;;;;;;;;4117867;34;20087;-96
2021/06/22 12:50:33;;;;;;;2.60;0.70;;;;;;;;;;4106657;34;20053;-95
2021/06/22 12:56:30;;;;;;;1.87;0.68;;;;;;;;;;4114365;34;20083;-95
2021/06/22 12:59:32;;;;;;;15.80;0.82;;;;;;;;;;4115723;34;20057;-96
2021/06/22 13:02:34;;;;;;;2.05;0.50;;;;;;;;;;4110549;34;20107;-95
2021/06/22 13:05:36;;;;;;;4.20;0.70;;;;;;;;;;4123942;34;20099;-94
2021/06/22 13:08:39;;;;;;;3.12;0.70;;;;;;;;;;4126583;34;20075;-96
2021/06/22 13:11:08;;;;;;;3.22;0.70;;;;;;;;;;4128588;34;20167;-94
2021/06/22 13:13:38;;;;;;;2.87;0.77;;;;;;;;;;4116376;34;20053;-94
2021/06/22 13:16:18;;;;;;;3.87;0.80;;;;;;;;;;4129087;34;20103;-94
2021/06/22 13:19:01;;;;;;;0.80;0.50;;;;;;;;;;4125696;34;20072;-94
2021/06/22 13:21:47;;;;;;;3.78;0.82;;;;;;;;;;4112298;34;20657;-94
2021/06/22 13:24:52;;;;;;;5.50;0.70;;;;;;;;;;4132276;34;20158;-94
2021/06/22 13:27:50;;;;;;;2.80;0.60;;;;;;;;;;4125477;34;20124;-94
2021/06/22 13:30:32;;;;;;;3.28;0.70;;;;;;;;;;4122121;34;20468;-95
2021/06/22 13:33:04;;;;;;;4.95;0.70;;;;;;;;;;4124030;34;20105;-95
2021/06/22 13:35:42;;;;;;;3.22;0.80;;;;;;;;;;4133970;34;20606;-95
2021/06/22 13:38:24;;;;;;;2.67;0.60;;;;;;;;;;4126280;34;20127;-96
2021/06/22 13:41:06;;;;;;;2.03;0.70;;;;;;;;;;4127701;34;20119;-93
2021/06/22 13:43:41;;;;;;;2.62;0.68;;;;;;;;;;4127416;34;20172;-94
2021/06/22 13:46:25;;;;;;;21.40;1.45;;;;;;;;;;4122532;34;20756;-94
2021/06/22 13:48:56;;;;;;;1.95;0.50;;;;;;;;;;4123358;34;20317;-95
2021/06/22 13:51:31;;;;;;;4.97;0.60;;;;;;;;;;4126898;34;20065;-93
2021/06/22 13:54:09;;;;;;;1.73;0.70;;;;;;;;;;4137248;34;20271;-93
2021/06/22 13:56:42;;;;;;;5.20;0.75;;;;;;;;;;4133689;34;20471;-94
2021/06/22 13:59:17;;;;;;;2.33;0.60;;;;;;;;;;4124228;34;20073;-93
2021/06/22 14:02:08;;;;;;;2.33;0.60;;;;;;;;;;4133401;34;20072;-94
2021/06/22 14:05:02;;;;;;;2.08;0.75;;;;;;;;;;4125424;34;20087;-94
2021/06/22 14:07:38;;;;;;;3.67;0.65;;;;;;;;;;4127364;34;20657;-94
2021/06/22 14:10:09;;;;;;;3.33;0.50;;;;;;;;;;4128896;34;20540;-96
2021/06/22 14:12:50;;;;;;;3.42;0.77;;;;;;;;;;4104691;34;20050;-94
2021/06/22 14:15:20;;;;;;;4.37;0.70;;;;;;;;;;4102556;34;20099;-95
2021/06/22 14:17:56;;;;;;;2.00;0.50;;;;;;;;;;4102004;34;20140;-93
2021/06/22 14:20:36;;;;;;;2.45;0.80;;;;;;;;;;4106107;34;20053;-94
2021/06/22 14:23:10;;;;;;;2.42;0.62;;;;;;;;;;4103862;34;20080;-94
2021/06/22 14:25:47;;;;;;;3.62;0.80;;;;;;;;;;4112333;34;20077;-94
2021/06/22 14:28:30;;;;;;;3.03;0.70;;;;;;;;;;4094803;34;20100;-94
2021/06/22 14:31:20;;;;;;;4.68;0.90;;;;;;;;;;4091290;34;20073;-94
2021/06/22 14:33:57;;;;;;;6.32;0.95;;;;;;;;;;4101465;34;20127;-94
2021/06/22 14:36:30;;;;;;;6.03;1.17;;;;;;;;;;4114598;34;20061;-94
2021/06/22 14:39:09;;;;;;;3.47;0.57;;;;;;;;;;4100619;34;20143;-94
2021/06/22 14:41:41;;;;;;;5.03;1.02;;;;;;;;;;4100969;34;20490;-94
2021/06/22 14:44:12;;;;;;;5.30;0.75;;;;;;;;;;4091034;34;20120;-95
2021/06/22 14:46:54;;;;;;;4.50;0.80;;;;;;;;;;4093047;34;20102;-96
2021/06/22 14:49:25;;;;;;;2.33;0.70;;;;;;;;;;4113284;34;20092;-93
2021/06/22 14:52:07;;;;;;;4.22;0.88;;;;;;;;;;4113857;34;20597;-95
2021/06/22 14:54:39;;;;;;;5.00;0.70;;;;;;;;;;4114300;34;20042;-94
2021/06/22 14:57:14;;;;;;;6.72;1.10;;;;;;;;;;4112430;34;20121;-94
2021/06/22 14:59:46;;;;;;;4.72;1.02;;;;;;;;;;4100615;34;20053;-92
2021/06/22 15:02:19;;;;;;;9.90;1.40;;;;;;;;;;4103385;34;20123;-94
2021/06/22 15:04:55;;;;;;;15.02;1.35;;;;;;;;;;4113249;34;20087;-93
2021/06/22 15:07:24;;;;;;;6.70;1.23;;;;;;;;;;4102409;34;20193;-95
2021/06/22 15:09:55;;;;;;;4.78;1.00;;;;;;;;;;4101675;34;20117;-93
2021/06/22 15:12:24;;;;;;;3.37;0.80;;;;;;;;;;4133741;34;20081;-94
2021/06/22 15:14:59;;;;;;;5.12;1.23;;;;;;;;;;4123810;34;20081;-93
2021/06/22 15:17:37;;;;;;;3.30;0.60;;;;;;;;;;4126347;34;20490;-94
2021/06/22 15:20:07;;;;;;;3.37;0.82;;;;;;;;;;4124173;34;20067;-95
2021/06/22 15:23:08;;;;;;;5.45;0.88;;;;;;;;;;4114281;34;20153;-95
2021/06/22 15:25:46;;;;;;;5.70;0.93;;;;;;;;;;4135889;34;20503;-95
2021/06/22 15:28:41;;;;;;;3.45;0.85;;;;;;;;;;4125760;34;20529;-96
2021/06/22 15:31:16;;;;;;;6.68;0.90;;;;;;;;;;4113153;34;20085;-94
2021/06/22 15:33:52;;;;;;;;;;;;;;;;;;4116771;34;20120;-95
2021/06/22 15:36:33;;;;;;;4.57;0.60;;;;;;;;;;4131876;34;19964;-93
2021/06/22 15:39:03;;;;;;;5.22;1.08;;;;;;;;;;4124048;34;20175;-94
2021/06/22 15:41:38;;;;;;;8.20;1.23;;;;;;;;;;4121771;34;20197;-92
2021/06/22 15:44:10;;;;;;;5.15;1.00;;;;;;;;;;4124177;34;20093;-94
2021/06/22 15:46:46;;;;;;;3.72;0.80;;;;;;;;;;4131135;34;20168;-92